Time;durP1;ratioP1;P1;durP2;ratioP2;P2;SDS_P1;SDS_P2;PMS_P1;PMS_P2;Temp;Humidity;BMP_temperature;BMP_pressure;BME280_temperature;BME280_humidity;BME280_pressure;Samples;Min_cycle;Max_cycle;Signal;HPM_P1;HPM_P2
2023/04/27 00:02:02;;;;;;;11.38;4.82;;;;;;;7.66;100.00;100050.53;5038076;28;20133;-70
2023/04/27 00:04:27;;;;;;;9.48;4.80;;;;;;;8.18;100.00;100202.34;5034155;28;20746;-69
2023/04/27 00:06:53;;;;;;;12.70;5.18;;;;;;;8.39;100.00;100232.09;5031253;28;20821;-69
2023/04/27 00:09:19;;;;;;;8.30;5.32;;;;;;;8.33;100.00;100212.00;5030829;28;20050;-70
2023/04/27 00:11:45;;;;;;;10.43;4.38;;;;;;;8.00;100.00;100126.44;5033728;28;20119;-69
2023/04/27 00:14:10;;;;;;;12.00;5.40;;;;;;;8.00;100.00;100129.06;5036022;28;20053;-69
2023/04/27 00:16:36;;;;;;;11.85;4.57;;;;;;;7.81;100.00;100094.13;5035930;28;20045;-69
2023/04/27 00:19:01;;;;;;;13.05;4.82;;;;;;;8.36;100.00;100206.81;5033220;28;20052;-70
2023/04/27 00:21:27;;;;;;;9.15;4.93;;;;;;;8.28;100.00;100231.16;5043312;28;20155;-70
2023/04/27 00:23:55;;;;;;;9.73;4.78;;;;;;;8.45;100.00;100226.91;5033125;28;20049;-69
2023/04/27 00:26:21;;;;;;;9.45;4.20;;;;;;;7.53;100.00;100124.41;5040974;28;20092;-70
2023/04/27 00:28:47;;;;;;;9.93;4.90;;;;;;;7.73;100.00;100107.13;5034646;28;20496;-71
2023/04/27 00:31:12;;;;;;;11.60;4.90;;;;;;;8.08;100.00;100158.75;5031775;28;20061;-69
2023/04/27 00:33:38;;;;;;;14.73;5.35;;;;;;;7.60;100.00;100090.50;5033300;28;20029;-70
2023/04/27 00:36:03;;;;;;;15.77;5.82;;;;;;;7.95;100.00;100154.28;5032543;28;20759;-70
2023/04/27 00:38:29;;;;;;;11.75;5.07;;;;;;;8.59;100.00;100242.69;5035640;28;20045;-70
2023/04/27 00:41:03;;;;;;;8.20;4.97;;;;;;;8.61;100.00;100252.28;5033316;28;20131;-70
2023/04/27 00:43:28;;;;;;;;;;;;;;;8.74;100.00;100227.09;5037309;28;20053;-69
2023/04/27 00:45:54;;;;;;;10.68;5.50;;;;;;;7.97;100.00;100093.34;5031408;28;19916;-69
2023/04/27 00:48:20;;;;;;;7.20;4.15;;;;;;;8.49;100.00;100228.69;5024111;28;20025;-69
2023/04/27 00:50:45;;;;;;;10.45;4.88;;;;;;;8.72;100.00;100248.88;5036014;28;20053;-69
2023/04/27 00:53:11;;;;;;;9.65;4.18;;;;;;;8.59;100.00;100214.81;5032341;28;20084;-69
2023/04/27 00:55:37;;;;;;;9.90;5.50;;;;;;;8.49;100.00;100210.38;5032844;28;20061;-69
2023/04/27 00:58:02;;;;;;;11.20;4.70;;;;;;;8.77;100.00;100247.16;5030141;28;20041;-69
2023/04/27 01:00:28;;;;;;;6.78;3.78;;;;;;;8.35;100.00;100220.75;5024757;28;20120;-68
2023/04/27 01:02:54;;;;;;;6.35;4.38;;;;;;;8.25;100.00;100203.25;5035246;28;20075;-69
2023/04/27 01:05:20;;;;;;;10.38;4.70;;;;;;;8.05;100.00;100143.03;5026628;28;20501;-70
2023/04/27 01:07:46;;;;;;;10.05;4.60;;;;;;;8.08;100.00;100150.00;5029704;28;20080;-71
2023/04/27 01:10:11;;;;;;;12.27;4.97;;;;;;;7.85;100.00;100171.66;5040799;28;20068;-71
2023/04/27 01:12:37;;;;;;;13.38;5.68;;;;;;;8.37;100.00;100267.81;5029999;28;20033;-70
2023/04/27 01:15:03;;;;;;;8.40;5.30;;;;;;;7.36;100.00;100129.50;5036561;28;20029;-69
2023/04/27 01:17:28;;;;;;;11.35;5.43;;;;;;;7.30;100.00;100132.03;5036948;28;20136;-69
2023/04/27 01:19:55;;;;;;;12.38;5.55;;;;;;;8.19;100.00;100225.03;5043384;28;20040;-70
2023/04/27 01:22:21;;;;;;;8.45;4.97;;;;;;;8.02;100.00;100163.91;5030712;28;20038;-71
2023/04/27 01:24:46;;;;;;;15.65;4.97;;;;;;;7.69;100.00;100139.31;5029596;28;20072;-70
2023/04/27 01:27:12;;;;;;;11.02;6.03;;;;;;;8.50;100.00;100251.38;5038592;28;20033;-69
2023/04/27 01:29:38;;;;;;;9.27;4.63;;;;;;;8.68;100.00;100266.28;5028151;28;20050;-70
2023/04/27 01:32:04;;;;;;;9.25;5.25;;;;;;;7.91;100.00;100121.16;5032757;28;20046;-70
2023/04/27 01:34:30;;;;;;;11.93;5.47;;;;;;;8.26;100.00;100238.97;5031445;28;20457;-71
2023/04/27 01:36:56;;;;;;;16.02;6.57;;;;;;;8.00;100.00;100169.13;5030647;28;20049;-71
2023/04/27 01:39:21;;;;;;;13.25;5.63;;;;;;;8.21;100.00;100246.78;5031903;28;20120;-71
2023/04/27 01:41:47;;;;;;;9.82;4.90;;;;;;;8.39;100.00;100251.28;5032115;28;20103;-70
2023/04/27 01:44:12;;;;;;;9.32;5.03;;;;;;;8.33;100.00;100284.34;5036496;28;20379;-73
2023/04/27 01:46:38;;;;;;;20.40;5.32;;;;;;;7.51;100.00;100176.59;5029499;28;20613;-69
2023/04/27 01:49:03;;;;;;;8.75;4.40;;;;;;;7.58;100.00;100193.19;5036102;28;20084;-70
2023/04/27 01:51:29;;;;;;;10.50;6.25;;;;;;;8.27;100.00;100282.56;5029799;28;20091;-69
2023/04/27 01:53:55;;;;;;;6.85;4.57;;;;;;;8.14;100.00;100289.44;5030907;28;20591;-70
2023/04/27 01:56:20;;;;;;;8.52;5.20;;;;;;;8.06;100.00;100264.97;5023414;28;20077;-70
2023/04/27 01:58:46;;;;;;;7.88;4.72;;;;;;;8.10;100.00;100221.44;5029300;28;20064;-69
2023/04/27 02:01:11;;;;;;;8.93;5.15;;;;;;;8.21;100.00;100275.53;5024491;28;20457;-70
2023/04/27 02:03:37;;;;;;;10.52;5.25;;;;;;;8.29;100.00;100275.63;5024996;28;20107;-71
2023/04/27 02:06:04;;;;;;;9.00;5.63;;;;;;;8.55;100.00;100288.88;5026760;28;20030;-71
2023/04/27 02:08:29;;;;;;;8.75;5.60;;;;;;;8.42;100.00;100261.78;5032538;28;20056;-69
2023/04/27 02:10:55;;;;;;;11.68;4.10;;;;;;;8.31;100.00;100291.28;5034261;28;20491;-71
2023/04/27 02:13:20;;;;;;;10.65;5.68;;;;;;;7.56;100.00;100202.72;5044359;28;20048;-72
2023/04/27 02:15:46;;;;;;;16.23;5.55;;;;;;;7.27;100.00;100171.16;5033717;28;20033;-71
2023/04/27 02:18:13;;;;;;;10.77;5.00;;;;;;;8.40;100.00;100296.63;5029269;28;20079;-71
2023/04/27 02:20:38;;;;;;;8.05;4.45;;;;;;;8.00;100.00;100207.44;5038638;28;20064;-71
2023/04/27 02:23:03;;;;;;;6.55;3.85;;;;;;;8.53;100.00;100271.44;5030561;28;20454;-71
2023/04/27 02:25:29;;;;;;;10.85;5.63;;;;;;;8.58;100.00;100309.81;5029981;28;20053;-68
2023/04/27 02:27:54;;;;;;;11.57;5.65;;;;;;;8.34;100.00;100239.06;5033969;28;20515;-70
2023/04/27 02:30:20;;;;;;;8.43;5.75;;;;;;;7.56;100.00;100177.53;5021591;28;20505;-69
2023/04/27 02:32:46;;;;;;;13.32;5.65;;;;;;;8.28;100.00;100247.72;5033748;28;20041;-70
2023/04/27 02:35:11;;;;;;;9.77;5.43;;;;;;;8.23;100.00;100322.59;5030609;28;20053;-70
2023/04/27 02:37:37;;;;;;;10.55;5.60;;;;;;;7.41;100.00;100195.66;5033335;28;20067;-70
2023/04/27 02:40:05;;;;;;;8.90;4.88;;;;;;;8.43;100.00;100321.06;5031948;28;20549;-70
2023/04/27 02:42:31;;;;;;;10.30;4.95;;;;;;;8.50;100.00;100293.22;5023586;28;20133;-70
2023/04/27 02:44:56;;;;;;;13.30;5.75;;;;;;;8.71;100.00;100333.44;5056433;28;20937;-71
2023/04/27 02:47:22;;;;;;;8.98;4.00;;;;;;;8.72;100.00;100317.75;5035341;28;20053;-71
2023/04/27 02:49:47;;;;;;;7.75;4.28;;;;;;;8.70;100.00;100321.22;5039842;28;20041;-69
2023/04/27 02:52:12;;;;;;;11.95;5.22;;;;;;;8.54;100.00;100312.41;5028447;28;20053;-69
2023/04/27 02:54:38;;;;;;;10.95;5.25;;;;;;;7.97;100.00;100205.69;5027648;28;20029;-70
2023/04/27 02:57:03;;;;;;;11.88;4.70;;;;;;;8.77;100.00;100334.34;5027904;28;20021;-72
2023/04/27 02:59:29;;;;;;;11.90;5.00;;;;;;;8.68;100.00;100326.44;5034144;28;20049;-70
2023/04/27 03:01:54;;;;;;;8.90;5.43;;;;;;;8.73;100.00;100360.47;5036369;28;20069;-68
2023/04/27 03:04:20;;;;;;;10.65;5.15;;;;;;;8.44;100.00;100298.41;5031551;28;20037;-70
2023/04/27 03:06:46;;;;;;;9.20;4.55;;;;;;;8.71;100.00;100338.66;5029588;28;20041;-69
2023/04/27 03:09:11;;;;;;;11.68;5.43;;;;;;;8.74;100.00;100339.56;5033851;28;20047;-68
2023/04/27 03:11:38;;;;;;;11.15;5.63;;;;;;;8.90;100.00;100365.81;5029088;28;20053;-69
2023/04/27 03:14:03;;;;;;;9.75;5.20;;;;;;;8.63;100.00;100328.16;5038299;28;20528;-69
2023/04/27 03:16:33;;;;;;;11.05;5.13;;;;;;;8.16;100.00;100256.34;5030004;28;20072;-69
2023/04/27 03:18:58;;;;;;;11.52;5.75;;;;;;;8.05;100.00;100237.09;5030390;28;20069;-70
2023/04/27 03:21:24;;;;;;;9.07;4.78;;;;;;;8.01;100.00;100230.13;5031793;28;20338;-72
2023/04/27 03:23:49;;;;;;;9.30;4.38;;;;;;;8.03;100.00;100305.03;5034082;28;20053;-71
2023/04/27 03:26:15;;;;;;;10.48;6.28;;;;;;;7.33;100.00;100173.84;5035528;28;20043;-72
2023/04/27 03:28:41;;;;;;;9.40;5.00;;;;;;;8.17;100.00;100294.69;5035525;28;20045;-71
2023/04/27 03:31:11;;;;;;;15.18;6.45;;;;;;;7.99;100.00;100265.81;5027342;28;20412;-70
2023/04/27 03:33:37;;;;;;;12.45;6.28;;;;;;;8.54;100.00;100377.78;5035196;28;20068;-70
2023/04/27 03:36:04;;;;;;;12.27;4.50;;;;;;;8.51;100.00;100351.63;5032056;28;20409;-69
2023/04/27 03:38:30;;;;;;;13.27;5.13;;;;;;;8.54;100.00;100393.47;5040144;28;20718;-72
2023/04/27 03:40:56;;;;;;;12.82;4.75;;;;;;;7.87;100.00;100312.72;5051991;28;20512;-69
2023/04/27 03:43:23;;;;;;;10.90;5.32;;;;;;;7.55;100.00;100295.88;5036514;28;20060;-71
2023/04/27 03:45:48;;;;;;;14.05;6.35;;;;;;;7.99;100.00;100311.09;5034140;28;20038;-68
2023/04/27 03:48:15;;;;;;;9.32;4.38;;;;;;;8.68;100.00;100425.84;5030277;28;20135;-72
2023/04/27 03:50:42;;;;;;;11.75;4.85;;;;;;;8.83;100.00;100423.34;5033173;28;20053;-71
2023/04/27 03:53:08;;;;;;;19.17;5.93;;;;;;;8.66;100.00;100430.19;5031267;28;20057;-73
2023/04/27 03:55:37;;;;;;;10.90;4.95;;;;;;;8.56;100.00;100421.38;5033024;28;20145;-69
2023/04/27 03:58:02;;;;;;;12.88;5.47;;;;;;;8.11;100.00;100323.38;5030846;28;20044;-69
2023/04/27 04:00:28;;;;;;;20.95;6.03;;;;;;;7.96;100.00;100252.69;5026252;28;20030;-69
2023/04/27 04:02:53;;;;;;;18.73;7.15;;;;;;;7.94;100.00;100275.34;5036637;28;20037;-70
2023/04/27 04:05:19;;;;;;;10.23;5.95;;;;;;;8.20;100.00;100320.84;5030866;28;20106;-69
2023/04/27 04:07:44;;;;;;;12.98;5.68;;;;;;;8.06;100.00;100304.19;5038956;28;20132;-70
2023/04/27 04:10:10;;;;;;;14.48;5.32;;;;;;;8.15;100.00;100304.25;5042947;28;20064;-71
2023/04/27 04:12:35;;;;;;;13.13;6.57;;;;;;;8.54;100.00;100380.41;5041427;28;20030;-69
2023/04/27 04:15:02;;;;;;;12.20;5.40;;;;;;;8.74;100.00;100397.13;5039380;28;20437;-69
2023/04/27 04:17:28;;;;;;;15.23;6.75;;;;;;;8.66;100.00;100370.91;5033004;28;20072;-69
2023/04/27 04:19:53;;;;;;;8.13;4.90;;;;;;;7.89;100.00;100251.78;5029424;28;20049;-69
2023/04/27 04:22:19;;;;;;;13.50;5.93;;;;;;;8.72;100.00;100398.84;5034513;28;20124;-69
2023/04/27 04:24:44;;;;;;;12.35;5.53;;;;;;;8.80;100.00;100401.50;5030337;28;20036;-72
2023/04/27 04:27:10;;;;;;;8.10;4.70;;;;;;;8.48;100.00;100390.81;5036170;28;20075;-71
2023/04/27 04:29:35;;;;;;;9.35;5.18;;;;;;;8.49;100.00;100421.34;5030203;28;20046;-71
2023/04/27 04:32:01;;;;;;;17.40;5.50;;;;;;;7.83;100.00;100320.50;5028967;28;20136;-70
2023/04/27 04:34:28;;;;;;;9.20;4.45;;;;;;;8.48;100.00;100402.16;5036892;28;20061;-69
2023/04/27 04:36:56;;;;;;;13.45;6.75;;;;;;;8.58;100.00;100403.97;5030215;28;20124;-70
2023/04/27 04:39:21;;;;;;;17.02;7.07;;;;;;;8.53;100.00;100428.34;5028589;28;20025;-70
2023/04/27 04:41:51;;;;;;;20.95;6.22;;;;;;;8.42;100.00;100365.50;5033026;28;20046;-70
2023/04/27 04:44:17;;;;;;;22.45;9.07;;;;;;;8.20;100.00;100309.53;5042330;28;20040;-69
2023/04/27 04:46:42;;;;;;;20.92;9.00;;;;;;;7.93;100.00;100269.22;5040659;28;20033;-69
2023/04/27 04:49:08;;;;;;;23.35;9.40;;;;;;;8.86;100.00;100425.13;5031872;28;20048;-71
2023/04/27 04:51:34;;;;;;;19.92;11.38;;;;;;;8.13;100.00;100278.97;5047937;28;20033;-70
2023/04/27 04:54:00;;;;;;;19.10;9.82;;;;;;;8.64;100.00;100362.19;5031123;28;20037;-71
2023/04/27 04:56:25;;;;;;;17.67;9.32;;;;;;;8.24;100.00;100277.28;5029312;28;20095;-70
2023/04/27 04:58:51;;;;;;;18.52;9.18;;;;;;;8.95;100.00;100385.06;5031578;28;20148;-71
2023/04/27 05:01:17;;;;;;;13.90;10.50;;;;;;;8.56;100.00;100387.38;5024953;28;20071;-69
2023/04/27 05:03:42;;;;;;;17.63;8.40;;;;;;;7.96;100.00;100245.75;5028025;28;20477;-69
2023/04/27 05:06:09;;;;;;;19.10;9.32;;;;;;;8.15;100.00;100279.88;5030299;28;20037;-71
2023/04/27 05:08:36;;;;;;;16.05;9.80;;;;;;;8.72;100.00;100364.84;5036731;28;20055;-70
2023/04/27 05:11:02;;;;;;;15.85;10.30;;;;;;;8.62;100.00;100363.91;5034901;28;20076;-72
2023/04/27 05:13:28;;;;;;;15.20;8.50;;;;;;;8.61;100.00;100380.44;5042696;28;20081;-69
2023/04/27 05:15:54;;;;;;;21.40;9.02;;;;;;;8.71;100.00;100370.94;5034700;28;20041;-71
2023/04/27 05:18:19;;;;;;;16.50;9.43;;;;;;;7.73;100.00;100235.13;5028416;28;20029;-70
2023/04/27 05:20:45;;;;;;;12.50;8.50;;;;;;;7.90;100.00;100252.66;5027981;28;20045;-70
2023/04/27 05:23:10;;;;;;;14.52;9.10;;;;;;;8.29;100.00;100312.22;5030587;28;20046;-70
2023/04/27 05:25:42;;;;;;;11.75;7.50;;;;;;;8.14;100.00;100301.63;5030958;28;20041;-70
2023/04/27 05:28:10;;;;;;;26.83;9.00;;;;;;;7.81;100.00;100270.00;5031699;28;20052;-71
2023/04/27 05:30:36;;;;;;;27.77;7.63;;;;;;;8.46;100.00;100338.50;5041812;28;20022;-70
2023/04/27 05:33:03;;;;;;;12.82;8.40;;;;;;;7.88;100.00;100223.03;5031225;28;20042;-69
2023/04/27 05:35:29;;;;;;;12.98;7.80;;;;;;;8.57;100.00;100360.38;5039900;28;20403;-69
2023/04/27 05:37:55;;;;;;;11.25;8.43;;;;;;;8.22;100.00;100298.22;5032893;28;20054;-70
2023/04/27 05:40:21;;;;;;;8.77;7.55;;;;;;;8.68;100.00;100402.31;5029326;28;20163;-71
2023/04/27 05:42:47;;;;;;;19.95;8.27;;;;;;;8.09;100.00;100292.88;5027292;28;20545;-69
2023/04/27 05:45:12;;;;;;;25.05;8.85;;;;;;;8.42;100.00;100348.06;5037550;28;20044;-70
2023/04/27 05:47:38;;;;;;;22.08;13.60;;;;;;;8.63;100.00;100383.94;5042075;28;20041;-70
2023/04/27 05:50:04;;;;;;;18.00;9.85;;;;;;;8.50;100.00;100378.63;5044785;28;20076;-71
2023/04/27 05:52:30;;;;;;;16.80;9.02;;;;;;;8.51;100.00;100362.09;5044870;28;20190;-70
2023/04/27 05:54:57;;;;;;;13.90;10.55;;;;;;;8.57;100.00;100356.88;5045692;28;20099;-69
2023/04/27 05:57:23;;;;;;;20.45;12.82;;;;;;;8.29;100.00;100340.06;5037057;28;20036;-71
2023/04/27 05:59:49;;;;;;;19.45;11.40;;;;;;;8.44;100.00;100290.56;5043026;28;20049;-70
2023/04/27 06:02:15;;;;;;;22.00;9.55;;;;;;;7.88;100.00;100168.19;5039687;28;20098;-72
2023/04/27 06:04:41;;;;;;;17.60;9.50;;;;;;;8.70;100.00;100305.53;5046471;28;20055;-70
2023/04/27 06:07:10;;;;;;;19.20;10.50;;;;;;;8.71;100.00;100307.28;5046392;28;20049;-70
2023/04/27 06:09:36;;;;;;;19.13;12.60;;;;;;;8.41;100.00;100239.13;5044971;28;20033;-71
2023/04/27 06:12:05;;;;;;;19.80;13.18;;;;;;;8.37;100.00;100245.16;5046607;28;20037;-69
2023/04/27 06:14:32;;;;;;;24.83;12.48;;;;;;;8.82;100.00;100296.00;5046238;28;20041;-69
2023/04/27 06:16:58;;;;;;;43.95;30.80;;;;;;;8.80;100.00;100300.38;5046534;28;20053;-70
2023/04/27 06:19:23;;;;;;;20.08;11.90;;;;;;;8.62;100.00;100288.06;5044624;28;20488;-70
2023/04/27 06:21:50;;;;;;;17.00;8.85;;;;;;;8.24;100.00;100196.25;5045982;28;20785;-69
2023/04/27 06:24:16;;;;;;;18.73;9.02;;;;;;;8.86;100.00;100305.63;5046521;28;20119;-70
2023/04/27 06:26:41;;;;;;;16.05;8.52;;;;;;;8.94;100.00;100299.56;5046268;28;20136;-70
2023/04/27 06:29:07;;;;;;;14.40;8.27;;;;;;;9.26;100.00;100339.84;5046281;28;20740;-70
2023/04/27 06:31:35;;;;;;;20.52;7.90;;;;;;;8.41;100.00;100220.81;5032211;28;20136;-71
2023/04/27 06:34:00;;;;;;;20.35;10.75;;;;;;;8.35;100.00;100227.72;5046381;28;20056;-71
2023/04/27 06:36:30;;;;;;;15.68;8.40;;;;;;;8.63;100.00;100254.94;5046349;28;20033;-71
2023/04/27 06:38:56;;;;;;;15.55;8.75;;;;;;;8.88;100.00;100344.88;5045812;28;20110;-72
2023/04/27 06:41:23;;;;;;;18.67;10.10;;;;;;;8.42;100.00;100263.53;5043925;28;20139;-71
2023/04/27 06:43:49;;;;;;;26.85;8.68;;;;;;;9.00;100.00;100405.13;5045561;28;20049;-70
2023/04/27 06:46:14;;;;;;;26.98;8.90;;;;;;;9.16;100.00;100395.66;5044991;28;20071;-70
2023/04/27 06:48:40;;;;;;;11.82;7.60;;;;;;;8.44;100.00;100275.72;5044349;28;20027;-70
2023/04/27 06:51:05;;;;;;;14.25;9.35;;;;;;;9.11;100.00;100386.00;5046513;28;20370;-70
2023/04/27 06:53:31;;;;;;;17.75;10.52;;;;;;;9.36;100.00;100397.47;5049825;28;20531;-70
2023/04/27 06:55:56;;;;;;;13.65;9.10;;;;;;;9.42;100.00;100377.44;5048383;28;20049;-70
2023/04/27 06:58:22;;;;;;;18.15;9.68;;;;;;;9.03;100.00;100296.97;5049919;28;20048;-69
2023/04/27 07:00:47;;;;;;;19.05;8.43;;;;;;;9.56;100.00;100389.72;5046880;28;20037;-70
2023/04/27 07:03:13;;;;;;;14.52;9.43;;;;;;;9.70;100.00;100419.47;5047421;28;20111;-71
2023/04/27 07:05:39;;;;;;;17.58;9.05;;;;;;;8.89;100.00;100286.44;5044265;28;20063;-69
2023/04/27 07:08:05;;;;;;;17.85;9.90;;;;;;;9.74;100.00;100418.59;5040561;28;20106;-69
2023/04/27 07:10:31;;;;;;;14.68;8.90;;;;;;;9.56;100.00;100374.88;5043636;28;20064;-70
2023/04/27 07:12:57;;;;;;;20.33;8.10;;;;;;;9.33;100.00;100324.16;5043231;28;20045;-70
2023/04/27 07:15:23;;;;;;;12.63;7.15;;;;;;;9.55;100.00;100357.38;5039071;28;20036;-69
2023/04/27 07:17:50;;;;;;;12.82;8.30;;;;;;;9.34;100.00;100393.97;5033342;28;20041;-70
2023/04/27 07:20:16;;;;;;;28.20;14.63;;;;;;;9.60;100.00;100366.16;5032733;28;20724;-69
2023/04/27 07:22:41;;;;;;;11.25;7.03;;;;;;;10.41;100.00;100479.97;5033130;28;20099;-71
2023/04/27 07:25:07;;;;;;;14.60;6.60;;;;;;;10.68;100.00;100487.88;5039138;28;20098;-69
2023/04/27 07:27:34;;;;;;;12.45;6.90;;;;;;;10.59;100.00;100431.91;5048321;28;20025;-70
2023/04/27 07:29:59;;;;;;;16.58;8.98;;;;;;;9.90;100.00;100373.22;5039380;28;20036;-69
2023/04/27 07:32:25;;;;;;;12.07;6.88;;;;;;;10.72;100.00;100491.38;5046042;28;20037;-70
2023/04/27 07:34:52;;;;;;;15.02;8.13;;;;;;;10.42;100.00;100406.53;5038193;28;20060;-69
2023/04/27 07:37:18;;;;;;;17.77;12.43;;;;;;;10.21;100.00;100281.50;5034080;28;20077;-71
2023/04/27 07:39:44;;;;;;;20.65;10.75;;;;;;;11.27;100.00;100506.25;5030538;28;20033;-71
2023/04/27 07:42:09;;;;;;;17.05;7.97;;;;;;;11.39;100.00;100517.59;5031108;28;20030;-70
2023/04/27 07:44:35;;;;;;;11.73;6.88;;;;;;;10.45;100.00;100403.03;5030923;28;20044;-70
2023/04/27 07:47:03;;;;;;;19.88;8.57;;;;;;;10.34;100.00;100414.38;5028695;28;20046;-70
2023/04/27 07:49:29;;;;;;;20.77;9.70;;;;;;;10.90;100.00;100490.50;5036667;28;20073;-69
2023/04/27 07:51:55;;;;;;;19.58;10.77;;;;;;;10.84;100.00;100453.75;5031346;28;20081;-69
2023/04/27 07:54:20;;;;;;;17.27;8.02;;;;;;;11.08;100.00;100519.38;5036970;28;20549;-70
2023/04/27 07:56:46;;;;;;;22.40;10.02;;;;;;;10.77;100.00;100438.03;5030109;28;20116;-69
2023/04/27 07:59:13;;;;;;;14.88;9.05;;;;;;;11.25;100.00;100514.13;5030735;28;20053;-70
2023/04/27 08:01:38;;;;;;;15.40;7.93;;;;;;;10.36;100.00;100406.53;5028794;28;20132;-69
2023/04/27 08:04:04;;;;;;;14.57;7.15;;;;;;;11.19;100.00;100517.63;5039034;28;20124;-71
2023/04/27 08:06:29;;;;;;;22.05;13.05;;;;;;;11.35;100.00;100518.47;5029212;28;20079;-70
2023/04/27 08:08:57;;;;;;;53.42;12.95;;;;;;;10.74;100.00;100452.88;5044373;28;20464;-70
2023/04/27 08:11:23;;;;;;;42.35;27.33;;;;;;;11.16;100.00;100516.75;5035134;28;20065;-69
2023/04/27 08:13:48;;;;;;;11.10;6.85;;;;;;;10.97;100.00;100524.63;5029190;28;20068;-68
2023/04/27 08:16:14;;;;;;;18.17;10.30;;;;;;;10.83;100.00;100508.00;5029359;28;20128;-71
2023/04/27 08:18:39;;;;;;;18.00;13.20;;;;;;;11.16;100.00;100480.84;5040136;28;20036;-70
2023/04/27 08:21:05;;;;;;;11.57;7.32;;;;;;;11.63;100.00;100523.69;5028073;28;20087;-70
2023/04/27 08:23:31;;;;;;;21.13;7.97;;;;;;;11.66;100.00;100514.91;5030032;28;20049;-69
2023/04/27 08:25:57;;;;;;;10.40;6.53;;;;;;;11.15;100.00;100441.47;5035614;28;20053;-71
2023/04/27 08:28:23;;;;;;;15.82;7.85;;;;;;;11.52;100.00;100493.91;5036866;28;20512;-69
2023/04/27 08:30:48;;;;;;;62.25;50.05;;;;;;;11.07;100.00;100420.47;5027944;28;20072;-69
2023/04/27 08:33:14;;;;;;;12.40;8.50;;;;;;;11.48;100.00;100437.03;5043431;28;20033;-69
2023/04/27 08:35:40;;;;;;;15.15;9.55;;;;;;;11.86;100.00;100518.34;5028107;28;20041;-70
2023/04/27 08:38:06;;;;;;;9.10;7.60;;;;;;;11.26;100.00;100375.78;5031766;28;20046;-70
2023/04/27 08:40:31;;;;;;;15.85;10.63;;;;;;;11.56;100.00;100398.44;5031172;28;20049;-72
2023/04/27 08:42:58;;;;;;;18.45;8.95;;;;;;;12.12;100.00;100528.78;5028316;28;20465;-72
2023/04/27 08:45:25;;;;;;;18.30;8.25;;;;;;;11.69;100.00;100394.00;5027621;28;20120;-72
2023/04/27 08:47:51;;;;;;;12.85;7.00;;;;;;;11.86;100.00;100515.72;5029866;28;20048;-72
2023/04/27 08:50:17;;;;;;;10.85;7.00;;;;;;;12.46;100.00;100542.66;5041184;28;20132;-69
2023/04/27 08:52:46;;;;;;;11.48;5.95;;;;;;;11.97;100.00;100429.81;5032754;28;20046;-69
2023/04/27 08:55:12;;;;;;;21.98;7.68;;;;;;;11.56;100.00;100417.69;5029764;28;20144;-70
2023/04/27 08:57:38;;;;;;;28.50;7.13;;;;;;;11.53;100.00;100409.84;5028485;28;20026;-69
2023/04/27 09:00:14;;;;;;;13.93;7.88;;;;;;;11.75;100.00;100433.38;5025856;28;20026;-70
2023/04/27 09:02:46;;;;;;;12.88;8.25;;;;;;;11.60;100.00;100393.16;5038313;28;20044;-71
2023/04/27 09:05:22;;;;;;;12.18;6.80;;;;;;;12.31;100.00;100533.97;5026012;28;20073;-69
2023/04/27 09:08:00;;;;;;;23.65;6.63;;;;;;;12.10;100.00;100542.84;5032067;28;20080;-69
2023/04/27 09:10:28;;;;;;;23.77;12.20;;;;;;;11.79;100.00;100370.28;5041412;28;20053;-70
2023/04/27 09:13:00;;;;;;;16.65;8.48;;;;;;;12.29;100.00;100498.91;5040413;28;20127;-72
2023/04/27 09:15:27;;;;;;;22.52;8.32;;;;;;;12.29;100.00;100512.06;5035679;28;20603;-71
2023/04/27 09:17:54;;;;;;;14.20;5.68;;;;;;;11.36;100.00;100412.53;5035091;28;20045;-71
2023/04/27 09:20:20;;;;;;;12.77;7.00;;;;;;;12.07;100.00;100514.78;5036454;28;20051;-70
2023/04/27 09:22:48;;;;;;;13.38;6.15;;;;;;;12.62;100.00;100513.63;5031217;28;20033;-70
2023/04/27 09:25:28;;;;;;;13.85;5.63;;;;;;;11.75;100.00;100415.88;5027108;28;20053;-70
2023/04/27 09:27:57;;;;;;;10.32;6.65;;;;;;;12.86;100.00;100531.88;5040298;28;20116;-71
2023/04/27 09:30:23;;;;;;;10.90;6.43;;;;;;;13.45;100.00;100497.13;5025751;28;20037;-70
2023/04/27 09:32:54;;;;;;;16.27;6.60;;;;;;;13.18;100.00;100509.66;5041883;28;20052;-69
2023/04/27 09:35:24;;;;;;;22.77;8.25;;;;;;;13.24;100.00;100527.16;5046833;28;20041;-70
2023/04/27 09:37:53;;;;;;;12.88;6.22;;;;;;;14.44;100.00;100517.91;5047350;28;20053;-69
2023/04/27 09:40:25;;;;;;;15.15;6.78;;;;;;;14.71;100.00;100500.81;5027501;28;20053;-68
2023/04/27 09:42:51;;;;;;;19.70;7.20;;;;;;;14.19;100.00;100485.69;5029248;28;20040;-69
2023/04/27 09:45:18;;;;;;;13.07;6.47;;;;;;;13.71;100.00;100523.22;5038631;28;20044;-72
2023/04/27 09:47:44;;;;;;;15.65;6.38;;;;;;;14.12;100.00;100514.81;5028530;28;20080;-70
2023/04/27 09:50:12;;;;;;;10.68;6.25;;;;;;;14.31;100.00;100512.78;5028302;28;20188;-69
2023/04/27 09:52:38;;;;;;;15.38;6.30;;;;;;;14.26;100.00;100490.88;5019866;28;20045;-71
2023/04/27 09:55:07;;;;;;;12.60;6.93;;;;;;;13.50;100.00;100406.56;5028406;28;20048;-72
2023/04/27 09:57:39;;;;;;;18.02;8.48;;;;;;;14.89;100.00;100496.97;5031221;28;20045;-70
2023/04/27 10:00:15;;;;;;;11.57;5.55;;;;;;;14.52;100.00;100416.56;5024593;28;20062;-69
2023/04/27 10:02:51;;;;;;;12.45;8.00;;;;;;;15.06;100.00;100499.38;5036240;28;20127;-69
2023/04/27 10:05:35;;;;;;;13.13;7.95;;;;;;;15.46;100.00;100503.94;5028730;28;20485;-70
2023/04/27 10:08:04;;;;;;;9.35;4.97;;;;;;;14.23;100.00;100372.13;5036398;28;20052;-70
2023/04/27 10:10:30;;;;;;;8.20;5.68;;;;;;;15.02;100.00;100363.75;5039810;28;20050;-72
2023/04/27 10:13:06;;;;;;;9.60;5.55;;;;;;;15.97;100.00;100414.75;5029420;28;20052;-70
2023/04/27 10:15:38;;;;;;;16.67;6.32;;;;;;;15.84;100.00;100368.28;5046262;28;20049;-70
2023/04/27 10:18:04;;;;;;;11.98;6.43;;;;;;;15.67;100.00;100490.31;5037018;28;20117;-70
2023/04/27 10:20:36;;;;;;;8.68;5.40;;;;;;;16.07;100.00;100473.63;5042748;28;20040;-70
2023/04/27 10:23:01;;;;;;;10.50;5.97;;;;;;;14.70;100.00;100356.44;5026187;28;20045;-70
2023/04/27 10:25:41;;;;;;;11.32;5.10;;;;;;;15.79;100.00;100487.44;5032701;28;20073;-69
2023/04/27 10:28:07;;;;;;;24.13;7.80;;;;;;;15.79;100.00;100381.59;5019636;28;20069;-69
2023/04/27 10:30:37;;;;;;;11.32;5.32;;;;;;;15.51;100.00;100491.50;5024300;28;20637;-71
2023/04/27 10:33:06;;;;;;;13.35;6.25;;;;;;;14.12;100.00;100377.59;5020393;28;20531;-70
2023/04/27 10:35:44;;;;;;;13.35;4.60;;;;;;;15.08;100.00;100495.81;5036540;28;20455;-70
2023/04/27 10:38:20;;;;;;;12.57;5.40;;;;;;;13.94;100.00;100488.66;5028244;28;20050;-70
2023/04/27 10:40:57;;;;;;;11.45;5.32;;;;;;;14.25;100.00;100398.50;5035199;28;20042;-69
2023/04/27 10:43:27;;;;;;;8.93;5.80;;;;;;;15.70;100.00;100476.13;5042307;28;20064;-70
2023/04/27 10:45:53;;;;;;;8.32;5.32;;;;;;;15.21;100.00;100390.72;5045629;28;20072;-71
2023/04/27 10:48:19;;;;;;;10.32;5.28;;;;;;;15.96;100.00;100497.66;5046329;28;20039;-70
2023/04/27 10:50:45;;;;;;;14.13;5.70;;;;;;;15.22;100.00;100452.38;5046190;28;20045;-71
2023/04/27 10:53:11;;;;;;;13.52;4.88;;;;;;;14.03;100.00;100363.66;5032471;28;20046;-71
2023/04/27 10:55:37;;;;;;;7.55;4.45;;;;;;;14.45;100.00;100412.28;5031694;28;20494;-71
2023/04/27 10:58:03;;;;;;;8.20;4.10;;;;;;;14.04;100.00;100412.88;5027466;28;20049;-70
2023/04/27 11:00:37;;;;;;;9.38;4.88;;;;;;;14.55;100.00;100484.31;5025911;28;20029;-71
2023/04/27 11:03:23;;;;;;;9.20;4.50;;;;;;;14.30;100.00;100486.41;5040368;28;20831;-69
2023/04/27 11:05:59;;;;;;;7.20;4.10;;;;;;;13.78;100.00;100371.06;5027081;28;20041;-70
2023/04/27 11:08:24;;;;;;;15.88;4.32;;;;;;;14.00;100.00;100443.75;5036284;28;20128;-70
2023/04/27 11:10:51;;;;;;;10.15;4.97;;;;;;;14.29;100.00;100435.41;5030534;28;20132;-70
2023/04/27 11:13:21;;;;;;;17.15;4.82;;;;;;;15.18;100.00;100401.34;5033279;28;20053;-69